Etusivu
METAR-TAF:

METAR-TAF

Lentoasemat :

Gabès, Tunisia

Leveyspiiri: 33-53N, Pituuspiiri: 010-06E, korkeus merenpinnasta: 4 m

Tämänhetkinen sää

Tämä raportti tehtiin 24 minuuttia sitten, kello 11.00 UTC
Tuuli 6 kn lännestä/lounaasta, vaihdellen etelän ja pohjoisen välillä
Lämpötila 26°C
Kosteus 18%
Ilmanpaine 1014 hPa
Näkyvyys 10 km tai enemmän
Hajanaisia pilviä 3600 ft:n korkeudessa

METAR: DTTG 011100Z 24006KT 190V350 9999 SCT036 26/M00 Q1014 NOSIG

Aika: 12:24 (11:24 UTC)

Sääennuste

Tämä raportti tehtiin 2 tuntia ja 24 minuuttia sitten, kello 09.00 UTC
Ennuste voimassa 01. päivästä klo 10 UTC - 01. päivään klo 19 UTC
Tuuli 6 kn lounaasta
Näkyvyys 10 km tai enemmän
Hajanaisia pilviä 3600 ft:n korkeudessa
Tulossa
01. päivästä klo 13 UTC - 01. päivään klo 15 UTC
Tuuli 12 kn idästä/koillisesta

TAF: DTTG 010900Z 0110/0119 23006KT 9999 SCT036 BECMG 0113/0115 07012KT

Säähavainnot ja -ennusteet yli 4000 lentoasemalta (METAR- ja TAF-raportit).

Käytössä olevat sääasemat on merkitty karttaan keltaisilla ja punaisilla pisteillä.

Aseta hiiri pisteen päälle nähdäksesi sääaseman nimen.

Klikkaa sitten nähdäksesi säähavainnot ja -ennusteet.

Kartan vaihtaminen: klikkaa mustalla rastilla varustettuja vihreitä pisteitä, niin voit zoomata sisään; viivalla varustettua vihreää pistettä, niin voit zoomata ulos tai vihreitä nuolia, niin pääset viereisille kartoille.


METAR-TAF: